Time;durP1;ratioP1;P1;durP2;ratioP2;P2;SDS_P1;SDS_P2;PMS_P1;PMS_P2;Temp;Humidity;BMP_temperature;BMP_pressure;BME280_temperature;BME280_humidity;BME280_pressure;Samples;Min_cycle;Max_cycle;Signal;HPM_P1;HPM_P2
2021/01/30 00:00:33;;;;;;;13.93;11.12;;;;;;;-2.21;82.40;98302.73;1782520;80;20955;-63
2021/01/30 00:03:04;;;;;;;13.88;10.23;;;;;;;-2.22;82.33;98299.80;1814488;79;21149;-63
2021/01/30 00:05:32;;;;;;;13.18;10.48;;;;;;;-2.23;82.33;98304.05;1782465;80;21501;-63
2021/01/30 00:08:04;;;;;;;12.98;10.78;;;;;;;-2.24;82.26;98307.48;1814176;79;20942;-63
2021/01/30 00:10:32;;;;;;;13.32;9.45;;;;;;;-2.26;82.31;98309.25;1782405;80;20915;-63
2021/01/30 00:13:01;;;;;;;14.95;10.98;;;;;;;-2.25;82.31;98314.74;1814465;79;21495;-63
2021/01/30 00:15:29;;;;;;;12.98;10.40;;;;;;;-2.24;82.25;98318.96;1782377;80;21137;-63
2021/01/30 00:17:58;;;;;;;14.83;10.45;;;;;;;-2.23;82.26;98323.17;1814430;79;21562;-63
2021/01/30 00:20:31;;;;;;;13.00;10.30;;;;;;;-2.20;82.23;98328.62;1782492;80;21417;-63
2021/01/30 00:23:01;;;;;;;11.97;9.38;;;;;;;-2.19;82.21;98330.29;1814475;79;20942;-63
2021/01/30 00:25:31;;;;;;;15.08;9.90;;;;;;;-2.18;82.04;98335.34;1782459;80;21486;-63
2021/01/30 00:28:00;;;;;;;12.20;9.78;;;;;;;-2.17;81.96;98340.00;1782464;80;21192;-63
2021/01/30 00:30:29;;;;;;;12.93;9.85;;;;;;;-2.17;81.89;98334.90;1814445;79;21558;-63
2021/01/30 00:33:00;;;;;;;13.68;9.58;;;;;;;-2.17;81.81;98340.83;1782422;80;20933;-63
2021/01/30 00:35:30;;;;;;;11.68;9.85;;;;;;;-2.17;81.70;98345.93;1814557;79;21512;-67
2021/01/30 00:37:58;;;;;;;12.47;9.65;;;;;;;-2.16;81.72;98351.42;1782596;80;20989;-67
2021/01/30 00:40:27;;;;;;;12.37;9.43;;;;;;;-2.14;81.60;98348.83;1814642;79;21200;-67
2021/01/30 00:42:56;;;;;;;10.78;9.10;;;;;;;-2.14;81.53;98347.55;1782616;80;21427;-68
2021/01/30 00:45:25;;;;;;;12.68;9.40;;;;;;;-2.13;81.40;98352.60;1814741;79;21929;-63
2021/01/30 00:47:55;;;;;;;10.50;8.95;;;;;;;-2.10;81.26;98349.13;1782569;80;21040;-64
2021/01/30 00:50:24;;;;;;;10.78;9.35;;;;;;;-2.09;81.12;98354.17;1814777;79;21634;-63
2021/01/30 00:52:55;;;;;;;12.23;9.35;;;;;;;-2.07;80.78;98360.06;1782556;80;21196;-64
2021/01/30 00:55:25;;;;;;;11.73;8.85;;;;;;;-2.08;80.61;98364.77;1774725;80;21302;-63
2021/01/30 00:57:55;;;;;;;11.38;9.05;;;;;;;-2.11;80.42;98362.31;1776922;80;21465;-64
2021/01/30 01:00:26;;;;;;;12.25;9.35;;;;;;;-2.12;80.27;98364.91;1812132;79;20958;-63
2021/01/30 01:02:57;;;;;;;11.12;8.98;;;;;;;-2.14;80.19;98371.77;1771869;81;20994;-64
2021/01/30 01:05:28;;;;;;;11.63;9.08;;;;;;;-2.17;80.07;98365.50;1771819;81;22185;-63
2021/01/30 01:07:56;;;;;;;11.15;9.15;;;;;;;-2.18;80.03;98377.41;1771766;81;21148;-64
2021/01/30 01:10:25;;;;;;;10.58;9.35;;;;;;;-2.18;79.92;98369.76;1803534;79;21512;-64
2021/01/30 01:12:54;;;;;;;11.18;8.88;;;;;;;-2.19;79.80;98370.64;1771805;80;21011;-64
2021/01/30 01:15:22;;;;;;;9.90;8.40;;;;;;;-2.19;79.62;98373.63;1771858;81;21520;-63
2021/01/30 01:17:51;;;;;;;10.63;9.33;;;;;;;-2.21;79.52;98374.12;1803603;79;22095;-63
2021/01/30 01:20:21;;;;;;;11.00;9.00;;;;;;;-2.22;79.61;98378.38;1771776;81;20946;-63
2021/01/30 01:22:50;;;;;;;10.98;8.30;;;;;;;-2.21;79.50;98376.67;1803626;79;20978;-64
2021/01/30 01:25:20;;;;;;;9.20;8.25;;;;;;;-2.20;79.35;98375.34;1771800;81;20986;-63
2021/01/30 01:27:48;;;;;;;10.23;8.98;;;;;;;-2.19;79.26;98380.84;1803552;79;21025;-63
2021/01/30 01:30:19;;;;;;;11.65;8.80;;;;;;;-2.17;79.15;98379.52;1771931;81;22082;-64
2021/01/30 01:32:47;;;;;;;10.55;8.25;;;;;;;-2.17;78.87;98381.62;1803566;79;21480;-63
2021/01/30 01:35:24;;;;;;;8.93;7.42;;;;;;;-2.16;78.54;98383.73;1771818;81;21547;-64
2021/01/30 01:37:52;;;;;;;;;;;;;;;-2.16;77.95;98385.84;1806293;79;21603;-63
2021/01/30 01:40:25;;;;;;;8.80;7.42;;;;;;;-2.14;77.54;98387.91;1801590;79;20505;-64
2021/01/30 01:43:16;;;;;;;9.30;7.80;;;;;;;-2.14;77.09;98393.45;1771947;80;22216;-64
2021/01/30 01:46:12;;;;;;;10.80;8.05;;;;;;;-2.16;76.73;98389.67;1803450;79;21610;-63
2021/01/30 01:48:55;;;;;;;9.65;8.38;;;;;;;-2.16;76.29;98393.50;1772035;81;21359;-63
2021/01/30 01:51:35;;;;;;;10.58;8.73;;;;;;;-2.16;75.72;98396.48;1771822;81;21365;-63
2021/01/30 01:54:06;;;;;;;12.05;9.30;;;;;;;-2.17;75.69;98391.83;1770220;81;21487;-63
2021/01/30 01:56:34;;;;;;;10.05;8.65;;;;;;;-2.17;75.27;98390.55;1771820;81;22052;-64
2021/01/30 01:59:08;;;;;;;10.72;9.13;;;;;;;-2.17;75.24;98395.65;1771697;81;20966;-63
2021/01/30 02:01:37;;;;;;;10.95;9.58;;;;;;;-2.15;75.08;98391.78;1803591;79;21554;-64
2021/01/30 02:04:10;;;;;;;11.38;8.93;;;;;;;-2.13;75.02;98395.12;1771850;81;21001;-63
2021/01/30 02:06:41;;;;;;;10.75;8.83;;;;;;;-2.14;74.83;98396.83;1803484;79;21108;-64
2021/01/30 02:09:12;;;;;;;10.63;8.73;;;;;;;-2.14;74.74;98399.38;1771933;81;21335;-63
2021/01/30 02:11:40;;;;;;;10.38;8.70;;;;;;;-2.13;74.65;98397.66;1803457;79;20950;-64
2021/01/30 02:14:09;;;;;;;9.70;8.40;;;;;;;-2.12;74.63;98404.44;1771787;81;21571;-64
2021/01/30 02:16:49;;;;;;;10.38;8.80;;;;;;;-2.12;74.32;98414.20;1803489;79;21425;-65
2021/01/30 02:19:55;;;;;;;10.82;9.28;;;;;;;-2.13;74.17;98406.59;1771820;81;21005;-67
2021/01/30 02:23:09;;;;;;;11.50;8.75;;;;;;;-2.14;74.28;98408.30;1727678;81;21399;-67
2021/01/30 02:26:33;;;;;;;9.75;8.50;;;;;;;-2.13;74.33;98416.35;1771706;81;21587;-68
2021/01/30 02:29:46;;;;;;;11.08;8.93;;;;;;;-2.12;74.15;98423.56;1771805;81;21484;-68
2021/01/30 02:32:40;;;;;;;11.03;8.63;;;;;;;-2.11;74.02;98422.67;1803493;79;21500;-67
2021/01/30 02:35:31;;;;;;;12.33;8.60;;;;;;;-2.14;74.09;98420.22;1771874;81;21006;-64
2021/01/30 02:38:10;;;;;;;11.33;8.35;;;;;;;-2.17;74.24;98413.50;1803464;79;22299;-67
2021/01/30 02:40:43;;;;;;;11.88;8.65;;;;;;;-2.16;74.07;98423.26;1771544;81;20953;-65
2021/01/30 02:43:14;;;;;;;11.25;9.30;;;;;;;-2.16;73.98;98425.80;1803590;79;20978;-65
2021/01/30 02:45:52;;;;;;;10.72;9.45;;;;;;;-2.16;74.06;98421.54;1771762;81;20942;-68
2021/01/30 02:48:30;;;;;;;11.93;8.65;;;;;;;-2.14;74.11;98427.43;1803498;79;21476;-64
2021/01/30 02:51:02;;;;;;;10.75;8.60;;;;;;;-2.14;74.02;98421.05;1771796;80;21190;-64
2021/01/30 02:53:35;;;;;;;12.88;8.80;;;;;;;-2.14;73.76;98427.43;1803396;79;20966;-64
2021/01/30 02:56:05;;;;;;;11.75;9.43;;;;;;;-2.17;73.90;98426.69;1771859;81;21361;-63
2021/01/30 02:58:44;;;;;;;13.13;9.50;;;;;;;-2.16;74.01;98432.18;1777066;80;20934;-63
2021/01/30 03:01:12;;;;;;;11.05;9.23;;;;;;;-2.16;74.07;98430.47;1814593;79;20926;-64
2021/01/30 03:03:40;;;;;;;11.97;9.65;;;;;;;-2.15;74.14;98437.67;1782567;80;22264;-64
2021/01/30 03:06:38;;;;;;;11.18;9.20;;;;;;;-2.16;74.30;98437.28;1814491;79;21598;-64
2021/01/30 03:09:25;;;;;;;10.50;8.70;;;;;;;;;;1766440;80;21593;-66
2021/01/30 03:12:09;;;;;;;10.93;8.90;;;;;;;-2.18;74.26;98434.77;1796120;80;21484;-67
2021/01/30 03:14:55;;;;;;;10.48;9.08;;;;;;;-2.18;73.97;98438.60;1782519;80;21107;-64
2021/01/30 03:17:25;;;;;;;8.75;7.72;;;;;;;-2.20;73.71;98442.91;1778252;80;21503;-65
2021/01/30 03:19:55;;;;;;;9.00;7.22;;;;;;;-2.24;73.24;98437.51;1784246;79;20942;-67
2021/01/30 03:22:24;;;;;;;11.12;8.65;;;;;;;-2.26;72.95;98434.17;1782464;80;20946;-64
2021/01/30 03:24:52;;;;;;;8.63;7.70;;;;;;;-2.28;72.92;98441.02;1820620;78;21458;-65
2021/01/30 03:27:29;;;;;;;10.93;8.15;;;;;;;-2.28;72.83;98441.47;1782505;80;21551;-65
2021/01/30 03:29:57;;;;;;;9.73;8.28;;;;;;;-2.30;72.74;98440.23;1782422;80;21465;-64
2021/01/30 03:32:27;;;;;;;8.93;8.00;;;;;;;-2.31;72.65;98454.30;1782328;79;21595;-65
2021/01/30 03:34:57;;;;;;;10.15;8.20;;;;;;;-2.30;72.59;98449.59;1814511;79;21602;-65
2021/01/30 03:37:26;;;;;;;9.25;8.35;;;;;;;-2.33;72.55;98447.97;1782441;80;21014;-64
2021/01/30 03:39:54;;;;;;;8.90;7.95;;;;;;;-2.32;72.70;98442.44;1782468;80;21480;-64
2021/01/30 03:42:23;;;;;;;10.05;8.00;;;;;;;-2.31;72.71;98442.83;1814477;79;22322;-64
2021/01/30 03:44:51;;;;;;;9.53;8.53;;;;;;;-2.32;72.63;98448.37;1782449;80;21388;-64
2021/01/30 03:47:20;;;;;;;10.18;8.70;;;;;;;-2.30;72.57;98450.88;1814511;79;21579;-64
2021/01/30 03:49:49;;;;;;;10.88;8.90;;;;;;;-2.32;72.49;98449.64;1782411;80;21580;-64
2021/01/30 03:52:17;;;;;;;10.60;8.60;;;;;;;-2.32;72.69;98451.36;1814628;79;20989;-64
2021/01/30 03:54:46;;;;;;;10.75;9.08;;;;;;;-2.33;72.72;98447.97;1782511;80;22098;-65
2021/01/30 03:57:14;;;;;;;9.10;8.20;;;;;;;-2.31;72.72;98457.69;1814406;79;21495;-65
2021/01/30 03:59:45;;;;;;;10.00;8.98;;;;;;;-2.30;72.65;98454.70;1773129;79;20935;-64
2021/01/30 04:02:13;;;;;;;11.95;9.85;;;;;;;-2.30;72.54;98451.70;1803362;79;20935;-64
2021/01/30 04:04:45;;;;;;;13.22;10.20;;;;;;;-2.29;72.68;98451.27;1771773;81;21482;-64
2021/01/30 04:07:15;;;;;;;14.35;10.95;;;;;;;-2.26;72.69;98458.39;1803463;79;21199;-64
2021/01/30 04:09:43;;;;;;;12.68;10.78;;;;;;;-2.26;72.94;98446.91;1771743;81;20979;-64
2021/01/30 04:12:12;;;;;;;12.88;10.00;;;;;;;-2.24;72.97;98443.88;1803614;79;21476;-64
2021/01/30 04:14:41;;;;;;;12.93;10.98;;;;;;;-2.22;72.80;98448.50;1771921;80;21536;-64
2021/01/30 04:17:09;;;;;;;12.63;10.23;;;;;;;-2.20;72.71;98449.72;1803684;79;21512;-64
2021/01/30 04:19:39;;;;;;;12.65;10.35;;;;;;;-2.18;72.82;98450.52;1771971;81;21952;-64
2021/01/30 04:22:07;;;;;;;13.38;10.40;;;;;;;-2.18;72.78;98452.63;1803556;79;21610;-65
2021/01/30 04:24:35;;;;;;;11.97;10.28;;;;;;;-2.17;72.59;98452.19;1771867;81;21602;-64
2021/01/30 04:27:04;;;;;;;11.05;9.55;;;;;;;-2.16;72.62;98447.48;1803618;79;21577;-64
2021/01/30 04:29:32;;;;;;;12.73;9.90;;;;;;;-2.17;72.52;98449.63;1772000;81;21467;-65
2021/01/30 04:32:01;;;;;;;12.28;9.93;;;;;;;-2.17;72.49;98453.02;1771879;81;22093;-64
2021/01/30 04:34:29;;;;;;;18.05;11.95;;;;;;;-2.18;72.45;98454.34;1803504;79;21560;-64
2021/01/30 04:36:57;;;;;;;19.87;12.88;;;;;;;-2.19;72.56;98450.95;1771779;81;21513;-64
2021/01/30 04:39:26;;;;;;;22.70;14.20;;;;;;;-2.19;72.65;98459.05;1803504;79;21603;-64
2021/01/30 04:42:12;;;;;;;24.57;14.83;;;;;;;-2.21;72.58;98456.98;1771951;81;21509;-64
2021/01/30 04:44:58;;;;;;;24.12;15.48;;;;;;;-2.23;72.67;98460.84;1803531;79;22367;-64
2021/01/30 04:48:00;;;;;;;21.73;13.85;;;;;;;-2.24;72.81;98457.91;1771929;81;21497;-65
2021/01/30 04:50:52;;;;;;;17.85;12.55;;;;;;;-2.24;72.82;98465.99;1743512;79;21547;-64
2021/01/30 04:53:44;;;;;;;14.13;10.23;;;;;;;-2.25;73.11;98468.14;1771777;80;21526;-64
2021/01/30 04:56:42;;;;;;;11.55;9.08;;;;;;;-2.25;73.32;98472.80;1744917;81;21485;-64
2021/01/30 04:59:38;;;;;;;14.78;10.23;;;;;;;-2.27;73.28;98470.73;1762696;79;21229;-64
2021/01/30 05:02:24;;;;;;;10.78;9.05;;;;;;;-2.26;73.27;98467.75;1782567;80;21572;-64
2021/01/30 05:04:53;;;;;;;13.43;9.83;;;;;;;-2.27;73.56;98472.02;1814373;79;21584;-64
2021/01/30 05:07:47;;;;;;;11.90;9.63;;;;;;;-2.27;74.20;98464.36;1782642;80;21475;-64
2021/01/30 05:10:37;;;;;;;11.00;9.10;;;;;;;-2.27;74.58;98464.36;1782799;80;20910;-64
2021/01/30 05:13:27;;;;;;;11.85;9.28;;;;;;;-2.23;74.68;98462.13;1814756;79;21326;-64
2021/01/30 05:16:07;;;;;;;14.58;10.80;;;;;;;-2.19;74.31;98459.05;1782208;80;21634;-64
2021/01/30 05:18:40;;;;;;;19.10;12.75;;;;;;;-2.16;74.02;98460.23;1814663;79;20942;-65
2021/01/30 05:21:16;;;;;;;17.37;11.97;;;;;;;-2.14;73.98;98464.84;1782482;80;21594;-64
2021/01/30 05:23:53;;;;;;;16.60;13.00;;;;;;;-2.08;73.72;98469.77;1853982;77;28505;-65
2021/01/30 05:26:44;;;;;;;16.15;11.95;;;;;;;-2.13;73.63;98459.70;1850812;77;21488;-65
2021/01/30 05:29:48;;;;;;;17.95;13.03;;;;;;;-2.12;73.41;98463.08;1850702;77;22148;-65
2021/01/30 05:32:51;;;;;;;12.03;10.18;;;;;;;-2.14;73.67;98472.49;1837854;77;21576;-65
2021/01/30 05:35:30;;;;;;;12.75;10.00;;;;;;;-2.17;73.65;98466.20;1850680;77;21461;-66
2021/01/30 05:38:04;;;;;;;15.58;11.63;;;;;;;-2.22;73.61;98458.69;1850741;77;21519;-65
2021/01/30 05:40:46;;;;;;;17.92;11.73;;;;;;;-2.24;73.64;98473.20;1850701;77;21504;-64
2021/01/30 05:43:35;;;;;;;16.75;12.13;;;;;;;-2.26;73.64;98465.20;1850557;77;21926;-65
2021/01/30 05:46:05;;;;;;;18.73;13.53;;;;;;;-2.29;73.73;98476.32;1836020;77;21540;-65
2021/01/30 05:48:42;;;;;;;22.10;15.23;;;;;;;-2.31;73.83;98474.25;1819517;77;21549;-65
2021/01/30 05:51:28;;;;;;;16.60;11.70;;;;;;;-2.32;73.80;98479.40;1850572;77;21579;-66
2021/01/30 05:53:58;;;;;;;18.23;11.63;;;;;;;-2.38;73.73;98475.31;1846979;77;21607;-63
2021/01/30 05:56:40;;;;;;;18.73;11.73;;;;;;;-2.44;73.87;98476.78;1850607;77;21425;-66
2021/01/30 05:59:20;;;;;;;35.08;21.35;;;;;;;-2.45;74.10;98481.48;1850521;77;20939;-63
2021/01/30 06:01:49;;;;;;;59.03;34.05;;;;;;;-2.46;74.10;98479.81;1850519;77;20963;-65
2021/01/30 06:04:22;;;;;;;54.30;33.58;;;;;;;-2.46;74.18;98479.81;1850564;77;21596;-65
2021/01/30 06:06:53;;;;;;;31.93;20.40;;;;;;;-2.46;74.13;98481.92;1850561;77;21461;-65
2021/01/30 06:09:38;;;;;;;25.25;14.35;;;;;;;-2.46;74.29;98472.17;1850602;77;21192;-64
2021/01/30 06:12:33;;;;;;;18.52;13.22;;;;;;;-2.43;74.43;98469.53;1849204;77;21560;-64
2021/01/30 06:15:18;;;;;;;27.10;16.55;;;;;;;-2.40;74.28;98475.82;1818393;78;20996;-65
2021/01/30 06:17:46;;;;;;;29.52;19.32;;;;;;;-2.40;74.20;98472.80;1811378;78;20991;-63
2021/01/30 06:20:25;;;;;;;29.32;19.70;;;;;;;-2.39;74.15;98471.92;1808962;78;20992;-64
2021/01/30 06:23:13;;;;;;;24.18;16.15;;;;;;;-2.39;74.01;98477.02;1818021;78;21035;-64
2021/01/30 06:25:43;;;;;;;16.32;11.43;;;;;;;-2.41;74.00;98469.05;1812201;78;21662;-66
2021/01/30 06:28:31;;;;;;;16.20;12.15;;;;;;;-2.41;73.97;98479.25;1815167;78;21433;-64
2021/01/30 06:31:16;;;;;;;19.62;13.40;;;;;;;-2.43;73.88;98481.00;1785822;78;20926;-63
2021/01/30 06:33:49;;;;;;;21.45;14.20;;;;;;;-2.45;73.93;98473.84;1813259;78;21574;-64
2021/01/30 06:36:21;;;;;;;19.05;13.88;;;;;;;-2.47;74.01;98480.70;1814124;79;21198;-65
2021/01/30 06:39:09;;;;;;;32.08;18.95;;;;;;;-2.50;74.10;98480.34;1810960;79;21018;-65
2021/01/30 06:41:38;;;;;;;58.13;27.60;;;;;;;-2.49;74.06;98479.91;1807551;79;20981;-65
2021/01/30 06:44:30;;;;;;;70.37;28.27;;;;;;;-2.50;74.04;98480.78;1813993;79;20971;-64
2021/01/30 06:47:19;;;;;;;75.37;29.63;;;;;;;-2.52;73.87;98482.53;1808554;79;21543;-64
2021/01/30 06:49:53;;;;;;;49.95;25.00;;;;;;;-2.57;73.93;98483.10;1811597;79;21913;-64
2021/01/30 06:52:28;;;;;;;40.40;23.90;;;;;;;-2.61;74.05;98484.06;1816009;79;21531;-67
2021/01/30 06:55:11;;;;;;;27.60;18.42;;;;;;;-2.62;74.11;98476.86;1819202;78;21554;-64
2021/01/30 06:58:01;;;;;;;27.15;20.00;;;;;;;-2.62;74.32;98462.01;1818996;79;21366;-66
2021/01/30 07:00:32;;;;;;;24.52;17.32;;;;;;;-2.61;74.35;98480.23;1750454;79;21550;-65
2021/01/30 07:03:28;;;;;;;23.10;15.30;;;;;;;-2.59;74.44;98469.13;1809923;79;21196;-66
2021/01/30 07:06:32;;;;;;;16.35;12.13;;;;;;;-2.56;74.39;98477.96;1815473;79;21063;-66
2021/01/30 07:09:25;;;;;;;17.27;12.55;;;;;;;-2.49;74.27;98478.63;1809869;79;21485;-66
2021/01/30 07:12:04;;;;;;;20.15;13.08;;;;;;;-2.45;74.00;98485.31;1818938;79;21576;-65
2021/01/30 07:14:53;;;;;;;17.55;13.62;;;;;;;-2.39;73.91;98494.03;1818939;79;20888;-65
2021/01/30 07:17:39;;;;;;;25.05;17.35;;;;;;;-2.33;73.83;98495.56;1803929;79;22179;-64
2021/01/30 07:20:17;;;;;;;20.15;14.58;;;;;;;-2.28;73.65;98497.11;1811816;79;20946;-65
2021/01/30 07:23:13;;;;;;;19.07;14.58;;;;;;;-2.24;73.47;98499.97;1811750;78;21385;-67
2021/01/30 07:26:04;;;;;;;21.85;15.80;;;;;;;-2.19;73.50;98499.84;1764114;80;20932;-65
2021/01/30 07:28:58;;;;;;;21.40;15.00;;;;;;;-2.11;73.21;98499.17;1788735;79;20919;-65
2021/01/30 07:31:36;;;;;;;24.05;15.98;;;;;;;-2.03;73.14;98512.54;1785491;79;22135;-65
2021/01/30 07:34:28;;;;;;;24.95;16.73;;;;;;;-1.93;72.91;98504.15;1787380;79;21651;-65
2021/01/30 07:37:25;;;;;;;24.00;16.02;;;;;;;-1.84;72.69;98507.26;1796397;79;21559;-65
2021/01/30 07:40:00;;;;;;;18.17;13.03;;;;;;;-1.71;73.25;98507.72;1792041;80;21016;-69
2021/01/30 07:42:49;;;;;;;18.87;13.83;;;;;;;-1.56;72.39;98513.60;1795671;79;21019;-67
2021/01/30 07:45:25;;;;;;;27.35;18.25;;;;;;;-1.48;71.92;98517.19;1789879;80;22366;-65
2021/01/30 07:48:30;;;;;;;30.43;20.08;;;;;;;-1.44;71.47;98513.22;1804694;79;21599;-70
2021/01/30 07:51:09;;;;;;;23.85;17.17;;;;;;;-1.41;71.28;98518.67;1794493;80;21525;-66
2021/01/30 07:53:38;;;;;;;18.82;14.80;;;;;;;-1.36;71.38;98521.91;1798989;79;21556;-68
2021/01/30 07:56:23;;;;;;;19.65;15.20;;;;;;;-1.28;71.20;98526.78;1790002;80;21564;-66
2021/01/30 07:59:24;;;;;;;18.82;14.40;;;;;;;-1.23;71.10;98521.92;1801106;79;22172;-65
2021/01/30 08:02:16;;;;;;;20.65;13.88;;;;;;;-1.19;71.11;98523.45;1800930;79;21041;-65
2021/01/30 08:05:23;;;;;;;22.60;14.43;;;;;;;-1.17;71.35;98525.96;1799901;79;21682;-65
2021/01/30 08:08:11;;;;;;;18.45;14.70;;;;;;;-1.07;72.60;98523.50;1800505;79;21493;-65
2021/01/30 08:11:00;;;;;;;22.37;14.65;;;;;;;-0.96;72.29;98526.54;1801214;79;21330;-65
2021/01/30 08:14:02;;;;;;;19.20;13.93;;;;;;;-0.84;72.26;98527.41;1805776;79;22279;-66
2021/01/30 08:17:04;;;;;;;20.75;15.03;;;;;;;-0.74;71.70;98534.30;1801707;79;20919;-65
2021/01/30 08:19:44;;;;;;;22.65;15.90;;;;;;;-0.65;70.87;98533.98;1802953;79;21030;-66
2021/01/30 08:22:24;;;;;;;29.15;19.65;;;;;;;-0.59;70.29;98541.88;1791371;80;21060;-66
2021/01/30 08:25:11;;;;;;;34.23;21.42;;;;;;;-0.51;70.13;98538.62;1801745;79;21507;-65
2021/01/30 08:27:44;;;;;;;24.98;17.55;;;;;;;-0.36;69.90;98538.05;1824948;78;21936;-66
2021/01/30 08:30:18;;;;;;;20.88;14.80;;;;;;;-0.12;70.22;98533.34;1788087;80;21021;-64
2021/01/30 08:33:05;;;;;;;20.25;15.78;;;;;;;0.18;69.58;98538.19;1784852;80;21151;-67
2021/01/30 08:35:42;;;;;;;17.87;14.65;;;;;;;0.49;68.92;98534.81;1793543;80;20989;-63
2021/01/30 08:38:21;;;;;;;15.35;12.65;;;;;;;0.77;68.24;98540.97;1805567;79;20924;-64
2021/01/30 08:40:54;;;;;;;18.70;12.25;;;;;;;0.95;67.50;98541.48;1803290;78;22087;-64
2021/01/30 08:43:46;;;;;;;16.62;12.23;;;;;;;1.07;67.76;98540.60;1802602;78;21040;-67
2021/01/30 08:46:39;;;;;;;16.85;12.70;;;;;;;1.17;67.25;98543.17;1795265;79;21624;-65
2021/01/30 08:49:20;;;;;;;17.20;13.60;;;;;;;1.21;66.38;98551.09;1790709;80;21592;-64
2021/01/30 08:52:10;;;;;;;18.67;12.28;;;;;;;1.18;66.72;98555.09;1790910;80;21438;-64
2021/01/30 08:54:44;;;;;;;18.90;13.40;;;;;;;1.21;66.22;98551.09;1790669;80;22166;-64
2021/01/30 08:57:36;;;;;;;19.42;14.73;;;;;;;1.20;66.38;98551.54;1762989;81;21519;-65
2021/01/30 09:00:28;;;;;;;23.05;15.85;;;;;;;1.20;65.79;98551.54;1792580;78;21580;-64
2021/01/30 09:03:00;;;;;;;27.30;17.27;;;;;;;1.21;65.14;98552.37;1771801;80;21468;-65
2021/01/30 09:05:38;;;;;;;21.82;15.68;;;;;;;1.20;64.75;98554.10;1777870;80;21357;-65
2021/01/30 09:08:21;;;;;;;17.20;12.93;;;;;;;1.18;64.50;98556.38;1779102;80;21371;-64
2021/01/30 09:10:50;;;;;;;17.75;13.10;;;;;;;1.12;63.58;98563.87;1824694;78;21538;-63
2021/01/30 09:13:19;;;;;;;19.25;14.63;;;;;;;0.98;63.89;98561.03;1788488;80;21464;-64
2021/01/30 09:15:58;;;;;;;18.87;14.20;;;;;;;0.94;64.32;98561.60;1824824;78;20925;-64
2021/01/30 09:18:35;;;;;;;16.45;12.15;;;;;;;0.95;64.54;98559.42;1796170;80;20981;-64
2021/01/30 09:21:18;;;;;;;13.75;12.10;;;;;;;0.98;64.44;98561.03;1824907;78;22262;-65
2021/01/30 09:24:23;;;;;;;14.05;11.90;;;;;;;1.01;64.46;98555.78;1799826;78;21571;-64
2021/01/30 09:27:04;;;;;;;14.10;12.28;;;;;;;1.02;64.18;98551.48;1815563;78;21495;-64
2021/01/30 09:29:42;;;;;;;15.38;12.20;;;;;;;1.01;63.96;98554.50;1792104;80;21455;-65
2021/01/30 09:32:17;;;;;;;16.95;13.08;;;;;;;0.98;63.89;98552.89;1835156;77;20971;-65
2021/01/30 09:34:50;;;;;;;21.12;15.23;;;;;;;0.94;64.19;98546.67;1819780;78;22239;-66
2021/01/30 09:37:38;;;;;;;16.23;12.18;;;;;;;0.97;64.41;98546.55;1826386;78;20933;-65
2021/01/30 09:40:11;;;;;;;14.23;11.80;;;;;;;1.02;64.15;98537.39;1819919;78;21655;-65
2021/01/30 09:42:40;;;;;;;17.05;11.83;;;;;;;1.03;63.72;98539.06;1818394;78;21382;-66
2021/01/30 09:45:15;;;;;;;17.48;14.38;;;;;;;1.03;63.60;98543.73;1814216;78;21548;-67
2021/01/30 09:47:47;;;;;;;16.80;13.65;;;;;;;1.04;63.63;98540.73;1819969;78;21944;-65
2021/01/30 09:50:19;;;;;;;17.17;12.90;;;;;;;1.07;63.90;98538.88;1819006;78;21554;-65
2021/01/30 09:52:59;;;;;;;15.93;12.40;;;;;;;1.13;63.72;98540.35;1826311;78;21443;-65
2021/01/30 09:55:28;;;;;;;16.62;13.15;;;;;;;1.15;63.34;98543.69;1809670;78;21354;-64
2021/01/30 09:58:04;;;;;;;15.25;12.13;;;;;;;1.12;63.13;98536.95;1790491;80;21531;-65
2021/01/30 10:00:40;;;;;;;15.40;12.75;;;;;;;1.07;63.44;98540.16;1807639;79;22161;-64
2021/01/30 10:03:26;;;;;;;16.23;12.28;;;;;;;1.02;63.44;98531.81;1807379;78;21043;-65
2021/01/30 10:05:57;;;;;;;14.30;11.95;;;;;;;1.01;63.55;98541.69;1783688;78;21566;-64
2021/01/30 10:08:33;;;;;;;13.53;11.43;;;;;;;1.00;63.48;98545.14;1785710;80;21545;-63
2021/01/30 10:11:06;;;;;;;16.07;12.23;;;;;;;1.00;63.34;98545.14;1803655;78;21575;-65
2021/01/30 10:13:40;;;;;;;14.55;11.83;;;;;;;0.95;63.07;98544.05;1819397;78;21461;-65
2021/01/30 10:16:17;;;;;;;16.02;12.63;;;;;;;0.91;63.06;98541.22;1824757;78;21496;-65
2021/01/30 10:18:52;;;;;;;16.42;12.80;;;;;;;0.89;63.24;98544.30;1856160;77;21000;-64
2021/01/30 10:21:34;;;;;;;16.23;12.63;;;;;;;0.92;63.33;98540.77;1821990;78;20945;-64
2021/01/30 10:24:28;;;;;;;17.40;12.00;;;;;;;0.93;63.24;98544.55;1813754;78;21555;-64
2021/01/30 10:27:24;;;;;;;16.95;12.15;;;;;;;0.94;62.92;98537.70;1798841;79;21259;-65
2021/01/30 10:29:52;;;;;;;20.75;14.60;;;;;;;0.94;63.09;98530.02;1795107;79;21500;-64
2021/01/30 10:32:44;;;;;;;17.73;13.80;;;;;;;0.92;63.01;98536.48;1799765;79;21110;-64
2021/01/30 10:35:29;;;;;;;19.92;13.90;;;;;;;0.88;62.72;98537.50;1797902;79;20935;-64
2021/01/30 10:38:10;;;;;;;22.70;15.35;;;;;;;0.78;63.04;98532.84;1807651;79;21598;-65
2021/01/30 10:40:45;;;;;;;15.70;12.47;;;;;;;0.70;63.00;98529.30;1792624;80;21321;-65
2021/01/30 10:43:23;;;;;;;17.92;13.62;;;;;;;0.61;63.18;98526.66;1797216;79;21382;-64
2021/01/30 10:45:57;;;;;;;15.40;12.60;;;;;;;0.59;63.25;98525.88;1797915;79;22014;-66
2021/01/30 10:48:37;;;;;;;15.83;12.45;;;;;;;0.59;63.38;98514.80;1793792;80;20960;-65
2021/01/30 10:51:16;;;;;;;16.00;11.78;;;;;;;0.61;63.55;98517.69;1799584;79;21531;-65
2021/01/30 10:53:46;;;;;;;18.12;13.05;;;;;;;0.64;63.34;98524.42;1790408;80;21394;-64
2021/01/30 10:56:24;;;;;;;14.83;12.55;;;;;;;0.61;63.51;98524.54;1805319;79;20952;-65
2021/01/30 10:58:54;;;;;;;17.62;12.80;;;;;;;0.59;63.23;98528.44;1808800;79;21627;-65
2021/01/30 11:01:30;;;;;;;18.80;13.70;;;;;;;0.57;63.46;98525.55;1790160;80;21458;-64
2021/01/30 11:04:03;;;;;;;23.70;14.78;;;;;;;0.57;63.48;98523.83;1799047;79;21452;-65
2021/01/30 11:06:47;;;;;;;18.02;12.23;;;;;;;0.59;63.37;98522.48;1797738;79;22159;-66
2021/01/30 11:09:27;;;;;;;16.65;11.63;;;;;;;0.59;62.63;98525.88;1808145;79;21016;-65
2021/01/30 11:12:21;;;;;;;19.85;14.63;;;;;;;0.52;62.54;98522.34;1806238;79;20993;-64
2021/01/30 11:14:50;;;;;;;22.10;16.55;;;;;;;0.47;62.77;98529.36;1770035;79;21475;-65
2021/01/30 11:17:31;;;;;;;20.35;15.58;;;;;;;0.47;63.46;98525.52;1793747;80;20985;-65
2021/01/30 11:20:00;;;;;;;22.93;17.80;;;;;;;0.48;63.79;98520.79;1800470;79;22175;-67
2021/01/30 11:22:30;;;;;;;19.73;14.55;;;;;;;0.50;64.36;98517.72;1793999;79;21246;-65
2021/01/30 11:25:11;;;;;;;18.02;13.40;;;;;;;0.54;64.01;98520.55;1800650;78;21563;-64
2021/01/30 11:27:50;;;;;;;25.23;18.17;;;;;;;0.51;63.79;98525.80;1809066;78;20977;-64
2021/01/30 11:30:25;;;;;;;41.40;25.30;;;;;;;0.46;64.13;98519.56;1841422;77;21563;-64
2021/01/30 11:33:04;;;;;;;29.67;19.55;;;;;;;0.47;64.08;98521.23;1822122;78;21953;-64
2021/01/30 11:35:36;;;;;;;30.82;19.25;;;;;;;0.52;63.38;98517.22;1799573;78;21130;-63
2021/01/30 11:38:11;;;;;;;27.35;17.98;;;;;;;0.52;63.51;98518.05;1825216;78;21017;-65
2021/01/30 11:40:40;;;;;;;22.73;16.48;;;;;;;0.56;63.19;98519.59;1824817;78;20890;-66
2021/01/30 11:43:09;;;;;;;17.00;13.10;;;;;;;0.56;63.24;98513.64;1857390;76;20925;-65
2021/01/30 11:45:37;;;;;;;24.23;16.15;;;;;;;0.52;63.52;98507.80;1818956;77;22073;-69
2021/01/30 11:48:07;;;;;;;17.15;13.10;;;;;;;0.47;64.43;98499.92;1813496;78;20990;-66
2021/01/30 11:50:35;;;;;;;24.70;14.58;;;;;;;0.43;64.45;98496.64;1814602;78;21044;-68
2021/01/30 11:53:10;;;;;;;19.50;14.50;;;;;;;0.38;64.72;98493.91;1806314;78;20946;-68
2021/01/30 11:55:41;;;;;;;20.72;15.00;;;;;;;0.37;64.52;98489.67;1835373;77;21511;-68
2021/01/30 11:58:10;;;;;;;21.17;16.40;;;;;;;0.38;65.10;98488.34;1839125;77;21196;-70
2021/01/30 12:00:38;;;;;;;17.60;12.90;;;;;;;0.37;65.52;98485.84;1832643;77;21515;-68
2021/01/30 12:03:13;;;;;;;19.20;15.72;;;;;;;0.30;65.78;98487.80;1834525;77;21022;-65
2021/01/30 12:05:42;;;;;;;22.05;16.37;;;;;;;0.20;66.26;98478.36;1777476;78;21495;-64
2021/01/30 12:08:10;;;;;;;17.30;13.78;;;;;;;0.11;66.87;98484.28;1811795;78;21469;-65
2021/01/30 12:10:38;;;;;;;20.12;15.23;;;;;;;0.05;67.38;98479.39;1811722;78;22294;-65
2021/01/30 12:13:07;;;;;;;19.12;14.85;;;;;;;-0.01;67.55;98477.93;1815785;78;21607;-65